.
WxDataArchive / Data Records for 2013-10-12
2013-10-11 October 2013 2013-10-13

Data Records for Saturday, 12 October 2013

Time	Temp	Chill	HIndex	Humid	Dewpt	 Wind 	HiWind	WindDir	Rain 	Barom 
-----	----	-----	------	-----	-----	------	------	-------	-----	----- 
00:00	57.3	57.3	57.3	83	52.2	1	3	68	0.00	30.040 
00:05	57.2	57.2	57.2	83	52.1	1	3	68	0.00	30.040 
00:10	57.0	57.0	57.0	84	52.2	0	3	68	0.00	30.040 
00:15	57.0	57.0	57.0	84	52.2	0	2	68	0.00	30.041 
00:20	56.9	56.9	56.9	84	52.1	0	2	68	0.00	30.041 
00:25	56.7	56.7	56.7	84	51.9	0	2	68	0.00	30.041 
00:30	56.6	56.6	56.6	85	52.1	0	2	68	0.00	30.042 
00:35	56.5	56.5	56.5	85	52.0	0	1	68	0.00	30.042 
00:40	56.3	56.3	56.3	86	52.2	0	2	68	0.00	30.042 
00:45	56.2	56.2	56.2	86	52.1	0	1	68	0.00	30.040 
00:50	56.0	56.0	56.0	87	52.2	0	1	68	0.00	30.040 
00:55	56.0	56.0	56.0	87	52.2	0	2	68	0.00	30.040 
01:00	55.9	55.9	55.9	88	52.4	0	2	68	0.00	30.040 
01:05	55.7	55.7	55.7	88	52.2	0	1	68	0.00	30.040 
01:10	55.6	55.6	55.6	88	52.1	0	1	68	0.00	30.040 
01:15	55.4	55.4	55.4	88	51.9	0	0	---	0.00	30.041 
01:20	55.3	55.3	55.3	89	52.1	0	1	68	0.00	30.041 
01:25	55.1	55.1	55.1	89	51.9	0	1	68	0.00	30.041 
01:30	55.0	55.0	55.0	89	51.8	0	0	---	0.00	30.042 
01:35	54.7	54.7	54.7	89	51.5	0	0	---	0.00	30.042 
01:40	54.5	54.5	54.5	89	51.3	0	0	---	0.00	30.042 
01:45	54.2	54.2	54.2	89	51.0	0	0	---	0.00	30.041 
01:50	54.1	54.1	54.1	90	51.2	0	0	---	0.00	30.041 
01:55	53.8	53.8	53.8	90	50.9	0	0	---	0.00	30.041 
02:00	53.6	53.6	53.6	90	50.7	0	0	---	0.00	30.043 
02:05	53.5	53.5	53.5	90	50.6	0	0	---	0.00	30.043 
02:10	53.2	53.2	53.2	90	50.3	0	0	---	0.00	30.043 
02:15	52.9	52.9	52.9	90	50.0	0	0	---	0.00	30.040 
02:20	52.6	52.6	52.6	91	50.0	0	0	---	0.00	30.040 
02:25	52.5	52.5	52.5	91	49.9	0	0	---	0.00	30.040 
02:30	52.3	52.3	52.3	91	49.8	0	0	---	0.00	30.045 
02:35	52.2	52.2	52.2	91	49.7	0	0	---	0.00	30.045 
02:40	52.0	52.0	52.0	91	49.5	0	0	---	0.00	30.045 
02:45	52.0	52.0	52.0	92	49.7	0	0	---	0.00	30.044 
02:50	52.0	52.0	52.0	92	49.7	0	0	---	0.00	30.044 
02:55	52.0	52.0	52.0	92	49.7	0	0	---	0.00	30.044 
03:00	52.0	52.0	52.0	92	49.7	0	0	---	0.00	30.046 
03:05	52.2	52.2	52.2	92	49.9	0	0	---	0.00	30.046 
03:10	52.2	52.2	52.2	92	49.9	0	0	---	0.00	30.046 
03:15	52.0	52.0	52.0	92	49.7	0	0	---	0.00	30.046 
03:20	51.7	51.7	51.7	92	49.5	0	0	---	0.00	30.046 
03:25	51.6	51.6	51.6	92	49.4	0	0	---	0.00	30.046 
03:30	51.3	51.3	51.3	92	49.1	0	0	---	0.00	30.047 
03:35	51.1	51.1	51.1	93	49.1	0	0	---	0.00	30.047 
03:40	51.0	51.0	51.0	93	49.0	0	0	---	0.00	30.047 
03:45	51.0	51.0	51.0	93	49.0	0	0	---	0.00	30.046 
03:50	51.0	51.0	51.0	93	49.0	0	0	---	0.00	30.046 
03:55	51.0	51.0	51.0	93	49.0	0	0	---	0.00	30.046 
04:00	50.8	50.8	50.8	93	48.8	0	0	---	0.00	30.047 
04:05	50.7	50.7	50.7	93	48.7	0	0	---	0.00	30.047 
04:10	50.5	50.5	50.5	93	48.6	0	0	---	0.00	30.047 
04:15	50.4	50.4	50.4	93	48.5	0	0	---	0.00	30.048 
04:20	50.2	50.2	50.2	93	48.3	0	0	---	0.00	30.048 
04:25	50.1	50.1	50.1	94	48.4	0	0	---	0.00	30.048 
04:30	50.1	50.1	50.1	94	48.4	0	0	---	0.00	30.048 
04:35	50.1	50.1	50.1	94	48.4	0	0	---	0.00	30.048 
04:40	50.1	50.1	50.1	94	48.4	0	1	68	0.00	30.048 
04:45	50.2	50.2	50.2	94	48.5	0	0	---	0.00	30.048 
04:50	50.2	50.2	50.2	94	48.5	0	0	---	0.00	30.048 
04:55	50.7	50.7	50.7	95	49.3	0	1	68	0.00	30.048 
05:00	51.1	51.1	51.1	95	49.7	0	1	68	0.00	30.048 
05:05	51.4	51.4	51.4	95	50.0	0	1	68	0.00	30.048 
05:10	51.4	51.4	51.4	95	50.0	0	0	---	0.00	30.048 
05:15	51.3	51.3	51.3	95	49.9	0	0	---	0.00	30.048 
05:20	51.1	51.1	51.1	95	49.7	0	0	---	0.00	30.048 
05:25	51.0	51.0	51.0	95	49.6	0	1	68	0.00	30.048 
05:30	51.0	51.0	51.0	95	49.6	0	1	68	0.00	30.047 
05:35	50.8	50.8	50.8	95	49.4	0	0	---	0.00	30.047 
05:40	50.8	50.8	50.8	95	49.4	0	0	---	0.00	30.047 
05:45	50.7	50.7	50.7	95	49.3	0	0	---	0.00	30.049 
05:50	50.5	50.5	50.5	95	49.1	0	0	---	0.00	30.049 
05:55	50.2	50.2	50.2	95	48.8	0	0	---	0.00	30.049 
06:00	50.1	50.1	50.1	95	48.7	0	0	---	0.00	30.050 
06:05	50.1	50.1	50.1	95	48.7	0	0	---	0.00	30.050 
06:10	49.9	49.9	49.9	95	48.5	0	0	---	0.00	30.050 
06:15	49.8	49.8	49.8	95	48.4	0	0	---	0.00	30.061 
06:20	49.6	49.6	49.6	95	48.2	0	0	---	0.00	30.061 
06:25	49.5	49.5	49.5	95	48.1	0	0	---	0.00	30.061 
06:30	49.4	49.4	49.4	95	48.0	0	0	---	0.00	30.061 
06:35	49.4	49.4	49.4	96	48.3	0	0	---	0.00	30.061 
06:40	49.4	49.4	49.4	96	48.3	0	0	---	0.00	30.061 
06:45	49.2	49.2	49.2	96	48.1	0	0	---	0.00	30.062 
06:50	49.1	49.1	49.1	96	48.0	0	0	---	0.00	30.062 
06:55	48.8	48.8	48.8	96	47.7	0	0	---	0.00	30.062 
07:00	48.6	48.6	48.6	96	47.5	0	0	---	0.00	30.058 
07:05	48.5	48.5	48.5	96	47.4	0	0	---	0.00	30.058 
07:10	48.3	48.3	48.3	96	47.2	0	0	---	0.00	30.058 
07:15	48.2	48.2	48.2	96	47.1	0	0	---	0.00	30.064 
07:20	48.0	48.0	48.0	96	46.9	0	0	---	0.00	30.064 
07:25	47.7	47.7	47.7	96	46.6	0	0	---	0.00	30.064 
07:30	47.6	47.6	47.6	96	46.5	0	0	---	0.00	30.065 
07:35	47.4	47.4	47.4	96	46.3	0	0	---	0.00	30.065 
07:40	47.3	47.3	47.3	96	46.2	0	0	---	0.00	30.065 
07:45	47.1	47.1	47.1	96	46.0	0	0	---	0.00	30.064 
07:50	47.1	47.1	47.1	96	46.0	0	0	---	0.00	30.064 
07:55	47.0	47.0	47.0	96	45.9	0	0	---	0.00	30.064 
08:00	47.0	47.0	47.0	96	45.9	0	0	---	0.00	30.071 
08:05	47.0	47.0	47.0	96	45.9	0	0	---	0.00	30.071 
08:10	47.0	47.0	47.0	96	45.9	0	0	---	0.00	30.071 
08:15	47.0	47.0	47.0	96	45.9	0	0	---	0.00	30.078 
08:20	47.1	47.1	47.1	96	46.0	0	0	---	0.00	30.078 
08:25	47.3	47.3	47.3	96	46.2	0	0	---	0.00	30.078 
08:30	47.6	47.6	47.6	96	46.5	0	1	68	0.00	30.079 
08:35	48.2	48.2	48.2	96	47.1	0	1	68	0.00	30.079 
08:40	48.8	48.8	48.8	96	47.7	0	1	68	0.00	30.079 
08:45	49.1	49.1	49.1	96	48.0	0	0	---	0.00	30.083 
08:50	49.4	49.4	49.4	96	48.3	0	1	68	0.00	30.083 
08:55	49.8	49.8	49.8	96	48.7	0	1	68	0.00	30.083 
09:00	50.1	50.1	50.1	96	49.0	0	1	68	0.00	30.077 
09:05	50.4	50.4	50.4	96	49.3	0	1	68	0.00	30.077 
09:10	50.8	50.8	50.8	96	49.7	0	1	68	0.00	30.077 
09:15	51.1	51.1	51.1	96	50.0	0	0	---	0.00	30.073 
09:20	51.3	51.3	51.3	96	50.2	0	1	68	0.00	30.073 
09:25	51.7	51.7	51.7	96	50.6	0	1	68	0.00	30.073 
09:30	52.2	52.2	52.2	96	51.1	0	0	---	0.00	30.074 
09:35	52.5	52.5	52.5	96	51.4	0	2	68	0.00	30.074 
09:40	52.9	52.9	52.9	96	51.8	0	0	---	0.00	30.074 
09:45	53.6	53.6	53.6	96	52.5	0	3	68	0.00	30.072 
09:50	54.1	54.1	54.1	96	53.0	0	2	68	0.00	30.072 
09:55	54.5	54.5	54.5	96	53.4	0	1	68	0.00	30.072 
10:00	55.1	55.1	55.1	96	54.0	0	0	---	0.00	30.069 
10:05	55.4	55.4	55.4	95	54.0	0	1	68	0.00	30.069 
10:10	56.0	56.0	56.0	95	54.6	0	0	---	0.00	30.069 
10:15	56.9	56.9	56.9	95	55.5	0	0	---	0.00	30.070 
10:20	57.6	57.6	57.6	94	55.9	0	0	---	0.00	30.070 
10:25	58.7	58.7	58.7	92	56.4	0	1	68	0.00	30.070 
10:30	59.9	59.9	59.9	89	56.6	0	1	68	0.00	30.065 
10:35	61.3	61.3	61.3	84	56.4	0	1	68	0.00	30.065 
10:40	62.4	62.4	62.4	80	56.1	0	1	68	0.00	30.065 
10:45	63.5	63.5	63.5	76	55.8	0	1	68	0.00	30.062 
10:50	64.7	64.7	64.7	72	55.5	0	3	68	0.00	30.062 
10:55	65.5	65.5	65.5	70	55.4	0	3	68	0.00	30.062 
11:00	66.4	66.4	66.4	67	55.1	0	1	68	0.00	30.056 
11:05	66.9	66.9	66.9	67	55.6	0	0	---	0.00	30.056 
11:10	67.4	67.4	67.4	65	55.2	0	1	68	0.00	30.056 
11:15	67.6	67.6	67.6	65	55.4	0	1	68	0.00	30.060 
11:20	68.4	68.4	68.4	65	56.2	0	1	68	0.00	30.060 
11:25	69.1	69.1	69.1	63	56.0	0	1	68	0.00	30.060 
11:30	69.4	69.4	69.4	61	55.4	0	3	68	0.00	30.060 
11:35	69.9	69.9	69.9	62	56.3	0	3	68	0.00	30.060 
11:40	70.3	70.3	70.3	59	55.3	0	1	68	0.00	30.060 
11:45	70.6	70.6	70.6	60	56.0	0	1	68	0.00	30.056 
11:50	70.9	70.9	70.9	60	56.3	0	2	68	0.00	30.056 
11:55	71.5	71.5	71.5	60	56.9	0	1	68	0.00	30.056 
12:00	72.1	72.1	72.1	57	56.0	0	1	68	0.00	30.052 
12:05	72.8	72.8	72.8	57	56.7	0	3	68	0.00	30.052 
12:10	73.5	73.5	73.5	54	55.8	0	1	68	0.00	30.052 
12:15	74.4	74.4	74.4	52	55.6	0	2	68	0.00	30.047 
12:20	74.9	74.9	74.9	53	56.6	0	2	68	0.00	30.047 
12:25	75.4	75.4	77.8	50	55.4	0	2	68	0.00	30.047 
12:30	75.8	75.8	77.9	47	54.1	0	2	68	0.00	30.040 
12:35	76.0	76.0	78.0	45	53.1	0	2	68	0.00	30.040 
12:40	76.3	76.3	78.2	47	54.6	0	1	112	0.00	30.040 
12:45	76.5	76.5	78.2	44	52.9	0	2	135	0.00	30.033 
12:50	76.7	76.7	78.2	43	52.5	0	2	135	0.00	30.033 
12:55	77.0	77.0	78.4	45	54.0	0	3	135	0.00	30.033 
13:00	77.2	77.2	78.5	44	53.6	1	4	135	0.00	30.030 
13:05	77.0	77.0	78.4	44	53.4	1	6	90	0.00	30.030 
13:10	77.2	77.2	78.5	43	52.9	1	3	135	0.00	30.030 
13:15	77.2	77.2	78.5	44	53.6	1	3	90	0.00	30.033 
13:20	77.2	77.2	78.5	43	52.9	1	4	158	0.00	30.033 
13:25	77.2	77.2	78.5	43	52.9	0	2	112	0.00	30.033 
13:30	77.6	77.6	78.7	43	53.3	0	3	0	0.00	30.025 
13:35	77.7	77.7	78.6	41	52.1	0	2	45	0.00	30.025 
13:40	77.7	77.7	78.7	42	52.8	0	3	45	0.00	30.025 
13:45	77.7	77.7	78.7	42	52.8	1	2	45	0.00	30.018 
13:50	77.9	77.9	78.7	40	51.6	1	3	68	0.00	30.018 
13:55	78.1	78.1	78.8	40	51.8	0	2	270	0.00	30.018 
14:00	78.1	78.1	78.8	41	52.5	0	2	270	0.00	30.021 
14:05	78.1	78.1	78.8	41	52.5	1	4	292	0.00	30.021 
14:10	78.1	78.1	78.8	41	52.5	0	2	292	0.00	30.021 
14:15	78.1	78.1	78.8	41	52.5	0	2	292	0.00	30.019 
14:20	78.1	78.1	78.7	39	51.1	1	4	112	0.00	30.019 
14:25	78.1	78.1	78.8	40	51.8	0	2	112	0.00	30.019 
14:30	77.9	77.9	78.6	38	50.2	2	4	135	0.00	30.014 
14:35	77.7	77.7	78.5	39	50.7	2	4	112	0.00	30.014 
14:40	77.7	77.7	78.5	38	50.0	1	5	68	0.00	30.014 
14:45	77.7	77.7	78.6	40	51.4	1	3	90	0.00	30.013 
14:50	77.7	77.7	78.6	40	51.4	0	1	90	0.00	30.013 
14:55	77.9	77.9	78.6	39	50.9	1	3	292	0.00	30.013 
15:00	78.1	78.1	78.8	40	51.8	0	2	292	0.00	30.011 
15:05	78.5	78.5	78.9	39	51.5	0	1	292	0.00	30.011 
15:10	78.6	78.6	79.0	39	51.5	0	2	292	0.00	30.011 
15:15	78.6	78.6	78.9	37	50.1	1	3	248	0.00	30.010 
15:20	78.6	78.6	78.9	37	50.1	0	3	270	0.00	30.010 
15:25	78.5	78.5	78.9	38	50.8	1	2	270	0.00	30.010 
15:30	78.3	78.3	78.7	37	49.9	1	2	270	0.00	30.011 
15:35	78.5	78.5	78.9	38	50.8	0	2	270	0.00	30.011 
15:40	78.3	78.3	78.7	37	49.9	1	2	0	0.00	30.011 
15:45	78.5	78.5	78.8	37	50.0	0	1	0	0.00	30.011 
15:50	78.3	78.3	78.7	37	49.9	0	2	0	0.00	30.011 
15:55	78.3	78.3	78.7	37	49.9	0	2	0	0.00	30.011 
16:00	78.1	78.1	78.6	37	49.7	0	1	0	0.00	30.006 
16:05	77.9	77.9	78.4	36	48.8	0	1	0	0.00	30.006 
16:10	77.9	77.9	78.5	37	49.5	0	1	0	0.00	30.006 
16:15	78.1	78.1	78.7	39	51.1	0	2	0	0.00	30.001 
16:20	78.3	78.3	78.6	35	48.4	0	1	0	0.00	30.001 
16:25	78.5	78.5	78.7	36	49.3	0	1	0	0.00	30.001 
16:30	78.5	78.5	78.8	37	50.0	0	2	0	0.00	29.995 
16:35	78.6	78.6	78.8	36	49.4	1	4	90	0.00	29.995 
16:40	78.5	78.5	78.7	35	48.5	1	3	90	0.00	29.995 
16:45	78.5	78.5	78.8	37	50.0	0	1	112	0.00	30.002 
16:50	78.3	78.3	78.8	39	51.3	0	1	112	0.00	30.002 
16:55	78.1	78.1	78.5	36	48.9	0	2	112	0.00	30.002 
17:00	77.7	77.7	78.4	37	49.3	0	2	112	0.00	30.008 
17:05	77.4	77.4	78.4	39	50.5	0	1	112	0.00	30.008 
17:10	76.8	76.8	78.0	38	49.2	0	1	112	0.00	30.008 
17:15	76.5	76.5	78.0	39	49.7	0	0	---	0.00	30.007 
17:20	76.0	76.0	77.8	39	49.2	0	0	---	0.00	30.007 
17:25	75.8	75.8	77.7	40	49.7	0	1	112	0.00	30.007 
17:30	75.6	75.6	77.7	41	50.2	0	1	112	0.00	30.009 
17:35	75.4	75.4	77.7	42	50.7	0	0	---	0.00	30.009 
17:40	75.3	75.3	77.7	43	51.2	0	0	---	0.00	30.009 
17:45	75.1	75.1	77.6	43	51.1	0	0	---	0.00	30.014 
17:50	74.9	74.9	74.9	45	52.1	0	0	---	0.00	30.014 
17:55	74.6	74.6	74.6	46	52.4	0	0	---	0.00	30.014 
18:00	74.2	74.2	74.2	46	52.1	0	0	---	0.00	30.015 
18:05	73.9	73.9	73.9	46	51.8	0	0	---	0.00	30.015 
18:10	73.7	73.7	73.7	46	51.6	0	0	---	0.00	30.015 
18:15	73.5	73.5	73.5	46	51.4	0	0	---	0.00	30.020 
18:20	73.5	73.5	73.5	47	52.0	0	0	---	0.00	30.020 
18:25	73.3	73.3	73.3	47	51.8	0	0	---	0.00	30.020 
18:30	73.0	73.0	73.0	49	52.7	0	0	---	0.00	30.020 
18:35	72.8	72.8	72.8	48	52.0	0	0	---	0.00	30.020 
18:40	72.7	72.7	72.7	50	53.0	0	0	---	0.00	30.020 
18:45	72.3	72.3	72.3	50	52.6	0	0	---	0.00	30.022 
18:50	72.1	72.1	72.1	50	52.4	0	0	---	0.00	30.022 
18:55	71.8	71.8	71.8	50	52.1	0	0	---	0.00	30.022 
19:00	71.6	71.6	71.6	51	52.5	0	0	---	0.00	30.031 
19:05	71.3	71.3	71.3	51	52.2	0	0	---	0.00	30.031 
19:10	70.9	70.9	70.9	51	51.9	0	0	---	0.00	30.031 
19:15	70.8	70.8	70.8	51	51.8	0	0	---	0.00	30.036 
19:20	70.4	70.4	70.4	51	51.4	0	0	---	0.00	30.036 
19:25	70.3	70.3	70.3	51	51.3	0	0	---	0.00	30.036 
19:30	70.1	70.1	70.1	51	51.1	0	0	---	0.00	30.038 
19:35	69.9	69.9	69.9	52	51.5	0	0	---	0.00	30.038 
19:40	69.6	69.6	69.6	52	51.2	0	0	---	0.00	30.038 
19:45	69.4	69.4	69.4	52	51.0	0	0	---	0.00	30.047 
19:50	69.3	69.3	69.3	52	50.9	0	0	---	0.00	30.047 
19:55	69.1	69.1	69.1	52	50.7	0	0	---	0.00	30.047 
20:00	68.8	68.8	68.8	53	51.0	0	0	---	0.00	30.051 
20:05	68.4	68.4	68.4	53	50.6	0	0	---	0.00	30.051 
20:10	67.9	67.9	67.9	55	51.1	0	0	---	0.00	30.051 
20:15	67.4	67.4	67.4	56	51.1	0	0	---	0.00	30.051 
20:20	66.9	66.9	66.9	57	51.2	0	0	---	0.00	30.051 
20:25	66.4	66.4	66.4	59	51.6	0	0	---	0.00	30.051 
20:30	66.0	66.0	66.0	61	52.2	0	0	---	0.00	30.055 
20:35	65.5	65.5	65.5	61	51.7	0	0	---	0.00	30.055 
20:40	65.3	65.3	65.3	61	51.5	0	0	---	0.00	30.055 
20:45	65.0	65.0	65.0	61	51.2	0	0	---	0.00	30.057 
20:50	64.8	64.8	64.8	62	51.5	0	0	---	0.00	30.057 
20:55	64.5	64.5	64.5	63	51.6	0	0	---	0.00	30.057 
21:00	64.2	64.2	64.2	64	51.8	0	0	---	0.00	30.058 
21:05	64.0	64.0	64.0	65	52.0	0	0	---	0.00	30.058 
21:10	63.7	63.7	63.7	66	52.1	0	0	---	0.00	30.058 
21:15	63.4	63.4	63.4	67	52.2	0	0	---	0.00	30.057 
21:20	63.2	63.2	63.2	68	52.5	0	0	---	0.00	30.057 
21:25	63.1	63.1	63.1	68	52.4	0	0	---	0.00	30.057 
21:30	62.9	62.9	62.9	68	52.2	0	0	---	0.00	30.064 
21:35	62.7	62.7	62.7	68	52.0	0	0	---	0.00	30.064 
21:40	62.6	62.6	62.6	69	52.3	0	0	---	0.00	30.064 
21:45	62.4	62.4	62.4	69	52.1	0	0	---	0.00	30.069 
21:50	62.3	62.3	62.3	70	52.4	0	0	---	0.00	30.069 
21:55	62.3	62.3	62.3	71	52.8	0	0	---	0.00	30.069 
22:00	62.1	62.1	62.1	71	52.6	0	0	---	0.00	30.069 
22:05	62.1	62.1	62.1	72	53.0	0	0	---	0.00	30.069 
22:10	62.0	62.0	62.0	72	52.9	0	0	---	0.00	30.069 
22:15	62.0	62.0	62.0	73	53.2	0	0	---	0.00	30.059 
22:20	62.1	62.1	62.1	73	53.3	0	0	---	0.00	30.059 
22:25	62.1	62.1	62.1	72	53.0	0	0	---	0.00	30.059 
22:30	62.3	62.3	62.3	73	53.5	0	0	---	0.00	30.060 
22:35	62.4	62.4	62.4	73	53.6	0	0	---	0.00	30.060 
22:40	62.6	62.6	62.6	73	53.8	0	0	---	0.00	30.060 
22:45	63.1	63.1	63.1	72	53.9	0	0	---	0.00	30.063 
22:50	63.5	63.5	63.5	71	53.9	0	0	---	0.00	30.063 
22:55	64.0	64.0	64.0	70	54.0	0	0	---	0.00	30.063 
23:00	64.5	64.5	64.5	69	54.1	0	0	---	0.00	30.068 
23:05	65.2	65.2	65.2	68	54.4	0	0	---	0.00	30.068 
23:10	66.0	66.0	66.0	65	53.9	0	1	112	0.00	30.068 
23:15	66.6	66.6	66.6	65	54.5	0	1	112	0.00	30.066 
23:20	66.9	66.9	66.9	64	54.3	0	0	---	0.00	30.066 
23:25	66.9	66.9	66.9	64	54.3	0	0	---	0.00	30.066 
23:30	67.1	67.1	67.1	64	54.5	0	2	112	0.00	30.066 
23:35	67.3	67.3	67.3	64	54.7	0	1	112	0.00	30.066 
23:40	67.6	67.6	67.6	64	55.0	0	1	112	0.00	30.066 
23:45	67.8	67.8	67.8	64	55.2	0	1	112	0.00	30.067 
23:50	67.9	67.9	67.9	64	55.3	0	1	112	0.00	30.067 
23:55	68.1	68.1	68.1	64	55.5	0	1	112	0.00	30.067 

CoCoRaHS
IN-AL-39
A2 Web Hosting
Creative Commons License
GoDaddy
search engine by freefind advanced

loaded 2018-11-15 03:39:26 • last modified 2010-11-18 10:43:29
Privacy PolicyDisclaimer
• wx.awcolley.com is powered by PmWiki v.2002016 •
• all content (unless otherwise noted) © 2018 A W Colley